Gibsonton, Florida
Current Conditions -  °F | °C
As of 2:58 PM on Thursday 23 Oct 2014 (Local Time) from KMCF Reporting Station
Clear Clear  
Wind Chill: 84°   Ceiling: Unl
Heat Index: 84°   Visibility: 10mi
Dew Point: 61°   Wind: 6mph
Humidity: 46%   Direction: NA
Pressure: 29.93"   Gusts: NA
Location:  27.85°N, 82.38°W
Report Text: KMCF 231858Z AUTO VRB05KT 10SM CLR 29/16 A2993 RMK AO2 SLP138 T02870162 VISNO RWY22 $
Loading
Personal Weather Stations






























Interactive Weather Map New forecast layout! Learn more

10-Day Weather Forecast

Advertisements
Track Severe Weather on mobile